Terminal Aerodrome Forecast
Issued by NWS

Home | Current Version | Previous Version | Text Only | Print | Product List | Glossary Off
Versions: 1 2 3 4 5 6 7 8 9 10 11 12 13 14 15 16 17

000
FTUS43 KMPX 201700 RRA
TAFAXN
TAF
KAXN 201741Z 2018/2118 19010KT 4SM BR OVC005
     FM202000 17010KT 5SM BR OVC008
     FM210300 17010KT 2SM BR OVC003
      TEMPO 2106/2110 1 1/2SM -SN BR OVC003
     FM211600 16010KT 5SM BR OVC005=

USA.gov is the U.S. government's official web portal to all federal, state and local government web resources and services.